Time;durP1;ratioP1;P1;durP2;ratioP2;P2;SDS_P1;SDS_P2;PMS_P1;PMS_P2;Temp;Humidity;BMP_temperature;BMP_pressure;BME280_temperature;BME280_humidity;BME280_pressure;Samples;Min_cycle;Max_cycle;Signal;HPM_P1;HPM_P2
2022/01/20 00:00:19;;;;;;;43.90;5.53;;;4.40;99.90;;;;;;5099398;28;20024;-75
2022/01/20 00:02:47;;;;;;;38.72;4.65;;;4.40;99.90;;;;;;5074126;22;20060;-77
2022/01/20 00:26:55;;;;;;;45.53;6.35;;;4.40;99.90;;;;;;5056293;28;20089;-78
2022/01/20 00:29:28;;;;;;;58.00;6.22;;;4.50;99.90;;;;;;5057803;28;20021;-77
2022/01/20 00:32:07;;;;;;;58.60;6.70;;;4.50;99.90;;;;;;5058773;28;20029;-77
2022/01/20 00:35:07;;;;;;;49.67;5.45;;;4.50;99.90;;;;;;5058955;28;20002;-76
2022/01/20 00:37:31;;;;;;;68.57;6.03;;;4.60;99.90;;;;;;5058330;28;20024;-76
2022/01/20 00:39:58;;;;;;;60.00;6.75;;;4.60;99.90;;;;;;5058880;28;20092;-77
2022/01/20 00:42:25;;;;;;;53.50;5.70;;;4.60;99.90;;;;;;5059773;28;20044;-75
2022/01/20 00:44:51;;;;;;;59.33;6.07;;;4.60;99.90;;;;;;5057493;28;20032;-76
2022/01/20 00:47:18;;;;;;;50.85;5.38;;;4.70;99.90;;;;;;5054774;28;20045;-77
2022/01/20 00:49:45;;;;;;;52.03;6.30;;;4.70;99.90;;;;;;5051226;28;20081;-78
2022/01/20 00:52:11;;;;;;;47.20;5.70;;;4.70;99.90;;;;;;5052084;28;20042;-77
2022/01/20 00:54:36;;;;;;;54.38;4.82;;;4.70;99.90;;;;;;5048935;28;20026;-77
2022/01/20 00:57:03;;;;;;;40.67;5.00;;;4.70;99.90;;;;;;5043934;28;20028;-77
2022/01/20 00:59:29;;;;;;;38.95;4.05;;;4.70;99.90;;;;;;5050785;28;20565;-78
2022/01/20 01:01:56;;;;;;;46.78;6.13;;;4.80;99.90;;;;;;5054246;28;20025;-76
2022/01/20 01:04:24;;;;;;;44.08;4.35;;;4.80;99.90;;;;;;5047224;28;20077;-77
2022/01/20 01:07:12;;;;;;;27.92;4.03;;;4.80;99.90;;;;;;5046354;28;20018;-78
2022/01/20 01:09:39;;;;;;;35.42;3.65;;;4.80;99.90;;;;;;5044834;28;20100;-79
2022/01/20 01:12:13;;;;;;;35.05;4.18;;;4.90;99.90;;;;;;5041098;28;20024;-78
2022/01/20 01:14:44;;;;;;;37.10;4.30;;;4.90;99.90;;;;;;5040481;28;20025;-76
2022/01/20 01:22:34;;;;;;;35.60;3.92;;;5.00;99.90;;;;;;5018631;28;20038;-77
2022/01/20 01:25:01;;;;;;;23.33;3.35;;;5.00;99.90;;;;;;5053103;28;20002;-77
2022/01/20 01:27:29;;;;;;;32.58;4.45;;;5.00;99.90;;;;;;5054551;28;20021;-76
2022/01/20 01:32:49;;;;;;;;;;;4.80;99.90;;;;;;5062900;28;20025;-76
2022/01/20 01:35:18;;;;;;;30.33;3.22;;;4.80;99.90;;;;;;5054914;28;19905;-80
2022/01/20 01:40:29;;;;;;;25.83;3.90;;;4.60;99.90;;;;;;5052150;28;20056;-79
2022/01/20 01:42:56;;;;;;;27.15;3.10;;;4.60;99.90;;;;;;5047099;28;20033;-79
2022/01/20 01:45:27;;;;;;;40.45;3.50;;;4.50;99.90;;;;;;5043201;28;20053;-79
2022/01/20 01:47:54;;;;;;;30.85;4.03;;;4.60;99.90;;;;;;5043953;28;20017;-79
2022/01/20 01:50:21;;;;;;;35.58;3.30;;;4.50;99.90;;;;;;5043793;28;20025;-80
2022/01/20 01:52:47;;;;;;;25.02;3.38;;;4.50;99.90;;;;;;5045477;28;20052;-78
2022/01/20 01:55:13;;;;;;;22.92;3.97;;;4.50;99.90;;;;;;5044899;28;20025;-80
2022/01/20 01:57:38;;;;;;;30.20;3.05;;;4.40;99.90;;;;;;5045309;28;20033;-80
2022/01/20 02:00:08;;;;;;;28.85;3.38;;;4.40;99.90;;;;;;5048973;28;20025;-80
2022/01/20 02:02:34;;;;;;;26.67;2.85;;;4.40;99.90;;;;;;5047329;28;20073;-80
2022/01/20 02:05:03;;;;;;;21.33;3.33;;;4.40;99.90;;;;;;5048029;28;20018;-81
2022/01/20 02:07:57;;;;;;;20.27;2.97;;;4.50;99.90;;;;;;5046863;28;20064;-80
2022/01/20 02:18:46;;;;;;;22.83;3.30;;;4.30;99.90;;;;;;5037070;28;20095;-77
2022/01/20 02:21:12;;;;;;;24.38;3.35;;;4.30;99.90;;;;;;5036164;28;20031;-77
2022/01/20 02:23:38;;;;;;;27.98;4.32;;;4.20;99.90;;;;;;5035979;28;20089;-77
2022/01/20 02:26:04;;;;;;;31.98;3.55;;;4.20;99.90;;;;;;5035156;28;20026;-76
2022/01/20 02:28:29;;;;;;;31.15;2.97;;;4.20;99.90;;;;;;5036504;28;20025;-78
2022/01/20 02:30:56;;;;;;;29.45;3.25;;;4.20;99.90;;;;;;5036579;28;20030;-77
2022/01/20 02:33:26;;;;;;;32.30;3.58;;;4.20;99.90;;;;;;5034633;28;20052;-77
2022/01/20 02:36:03;;;;;;;31.45;3.22;;;4.20;99.90;;;;;;5036020;28;20033;-77
2022/01/20 02:38:43;;;;;;;33.55;3.80;;;4.20;99.90;;;;;;5033536;28;20025;-76
2022/01/20 02:46:39;;;;;;;43.55;4.82;;;4.20;99.90;;;;;;5049389;28;20309;-78
2022/01/20 02:49:07;;;;;;;49.03;5.03;;;4.20;99.90;;;;;;5038854;28;20498;-77
2022/01/20 02:51:34;;;;;;;40.33;5.15;;;4.10;99.90;;;;;;5040309;28;20026;-76
2022/01/20 02:54:00;;;;;;;46.72;5.03;;;4.10;99.90;;;;;;5042658;28;20017;-75
2022/01/20 02:56:26;;;;;;;41.30;5.22;;;4.00;99.90;;;;;;5053522;28;20021;-77
2022/01/20 02:58:51;;;;;;;45.17;4.78;;;3.90;99.90;;;;;;5051827;28;20026;-75
2022/01/20 03:01:17;;;;;;;44.72;4.75;;;3.90;99.90;;;;;;5051298;28;20025;-76
2022/01/20 03:03:42;;;;;;;43.85;5.20;;;3.80;99.90;;;;;;5053269;28;20029;-76
2022/01/20 03:06:08;;;;;;;41.38;5.13;;;3.80;99.90;;;;;;5048424;28;20085;-76
2022/01/20 03:08:34;;;;;;;48.30;5.30;;;3.80;99.90;;;;;;5054054;28;20084;-76
2022/01/20 03:11:00;;;;;;;45.75;6.07;;;3.80;99.90;;;;;;5041019;28;20029;-76
2022/01/20 03:13:25;;;;;;;39.08;4.93;;;3.70;99.90;;;;;;5037183;28;20037;-75
2022/01/20 03:15:52;;;;;;;50.13;5.47;;;3.70;99.90;;;;;;5036311;28;20026;-75
2022/01/20 03:18:18;;;;;;;42.58;4.90;;;3.70;99.90;;;;;;5048532;28;20018;-76
2022/01/20 03:20:43;;;;;;;34.75;4.57;;;3.70;99.90;;;;;;5053953;28;20041;-76
2022/01/20 03:23:09;;;;;;;41.90;4.60;;;;;;;;;;5045840;28;20088;-76
2022/01/20 03:25:35;;;;;;;39.13;4.20;;;;;;;;;;5047190;28;20021;-75
2022/01/20 03:28:01;;;;;;;38.75;5.18;;;;;;;;;;5059746;28;20033;-75
2022/01/20 03:30:28;;;;;;;31.45;4.55;;;;;;;;;;5058374;28;20014;-76
2022/01/20 03:32:54;;;;;;;29.52;4.13;;;;;;;;;;5056675;28;20222;-76
2022/01/20 03:35:19;;;;;;;38.00;3.78;;;;;;;;;;5046886;28;20029;-75
2022/01/20 03:37:45;;;;;;;35.20;4.32;;;;;;;;;;5040105;28;20029;-78
2022/01/20 03:40:12;;;;;;;27.75;3.63;;;;;;;;;;5056278;28;20030;-77
2022/01/20 03:42:38;;;;;;;44.30;4.07;;;;;;;;;;5052101;28;20190;-79
2022/01/20 03:45:04;;;;;;;27.15;3.28;;;;;;;;;;5053393;28;20110;-78
2022/01/20 03:47:31;;;;;;;26.15;3.63;;;;;;;;;;5058213;28;20021;-77
2022/01/20 03:52:26;;;;;;;38.05;3.70;;;;;;;;;;5042230;28;20025;-78
2022/01/20 03:54:52;;;;;;;28.75;3.67;;;;;;;;;;5040306;28;20105;-78
2022/01/20 03:57:18;;;;;;;34.67;4.18;;;;;;;;;;5042565;28;20428;-79
2022/01/20 03:59:44;;;;;;;27.27;3.22;;;;;;;;;;5040992;28;20486;-82
2022/01/20 04:02:11;;;;;;;24.85;3.60;;;;;;;;;;5039036;28;20092;-76
2022/01/20 04:04:37;;;;;;;31.48;3.53;;;;;;;;;;5037578;28;20033;-75
2022/01/20 04:07:04;;;;;;;29.55;3.78;;;;;;;;;;5036578;28;20022;-74
2022/01/20 04:09:30;;;;;;;24.88;3.88;;;;;;;;;;5038514;28;20021;-77
2022/01/20 04:11:56;;;;;;;23.83;3.30;;;;;;;;;;5053278;28;20063;-76
2022/01/20 04:14:24;;;;;;;31.77;3.42;;;;;;;;;;5055383;28;20022;-77
2022/01/20 04:17:16;;;;;;;26.58;3.60;;;;;;;;;;5035386;28;20383;-76
2022/01/20 04:19:36;;;;;;;32.92;3.35;;;;;;;;;;5036263;28;20068;-76
2022/01/20 04:22:02;;;;;;;22.35;2.97;;;;;;;;;;5038457;28;20026;-76
2022/01/20 04:24:28;;;;;;;28.42;3.20;;;;;;;;;;5035751;28;20475;-77
2022/01/20 04:26:54;;;;;;;18.73;2.83;;;;;;;;;;5035560;28;20029;-76
2022/01/20 04:29:20;;;;;;;25.38;3.95;;;;;;;;;;5038772;28;20377;-74
2022/01/20 04:31:48;;;;;;;28.23;3.17;;;;;;;;;;5054185;28;20064;-74
2022/01/20 04:34:14;;;;;;;29.00;3.58;;;;;;;;;;5041961;28;20371;-75
2022/01/20 04:36:43;;;;;;;33.97;4.22;;;;;;;;;;5035747;28;20026;-75
2022/01/20 04:39:12;;;;;;;29.50;4.35;;;;;;;;;;5036948;28;20021;-74
2022/01/20 04:41:38;;;;;;;22.80;2.90;;;;;;;;;;5048690;28;20022;-76
2022/01/20 04:44:08;;;;;;;32.30;3.63;;;;;;;;;;5052710;28;20029;-75
2022/01/20 04:46:52;;;;;;;31.08;3.63;;;;;;;;;;5036116;28;20116;-76
2022/01/20 04:57:33;;;;;;;23.15;3.47;;;;;;;;;;5054147;28;20057;-75
2022/01/20 04:59:59;;;;;;;26.02;3.78;;;;;;;;;;5057342;28;20013;-75
2022/01/20 05:02:27;;;;;;;37.33;5.20;;;;;;;;;;5056256;28;20096;-75
2022/01/20 05:04:53;;;;;;;30.55;4.32;;;;;;;;;;5057632;28;20022;-75
2022/01/20 05:07:24;;;;;;;40.03;4.78;;;;;;;;;;5057777;28;20128;-75
2022/01/20 05:09:51;;;;;;;32.88;4.38;;;;;;;;;;5055425;28;20030;-76
2022/01/20 05:12:23;;;;;;;38.28;4.00;;;;;;;;;;5055681;28;20033;-74
2022/01/20 05:14:49;;;;;;;35.78;4.25;;;;;;;;;;5056590;28;20132;-74
2022/01/20 05:17:15;;;;;;;44.80;5.18;;;;;;;;;;5055110;28;20033;-74
2022/01/20 05:19:41;;;;;;;48.65;4.47;;;;;;;;;;5057536;28;20081;-74
2022/01/20 05:22:07;;;;;;;38.78;4.78;;;;;;;;;;5045472;28;20088;-77
2022/01/20 05:24:33;;;;;;;52.92;5.90;;;;;;;;;;5034672;28;20017;-75
2022/01/20 05:26:59;;;;;;;48.13;5.00;;;;;;;;;;5035362;28;20071;-78
2022/01/20 05:29:25;;;;;;;41.78;4.50;;;;;;;;;;5035053;28;20399;-74
2022/01/20 05:31:52;;;;;;;45.97;4.70;;;;;;;;;;5034775;28;20088;-74
2022/01/20 05:34:18;;;;;;;39.08;4.60;;;;;;;;;;5035318;28;20026;-75
2022/01/20 05:36:47;;;;;;;43.85;4.88;;;;;;;;;;5033215;28;20081;-76
2022/01/20 05:39:14;;;;;;;47.30;4.93;;;;;;;;;;5035100;28;20072;-76
2022/01/20 05:41:39;;;;;;;50.63;5.78;;;;;;;;;;5035206;28;20547;-76
2022/01/20 05:44:06;;;;;;;42.03;5.05;;;;;;;;;;5035445;28;20030;-76
2022/01/20 05:46:40;;;;;;;42.38;5.38;;;;;;;;;;5035340;28;20017;-75
2022/01/20 05:49:09;;;;;;;44.33;4.75;;;;;;;;;;5035604;28;20025;-76
2022/01/20 05:51:36;;;;;;;57.13;5.43;;;;;;;;;;5035417;28;20453;-74
2022/01/20 05:54:03;;;;;;;52.80;5.80;;;;;;;;;;5033340;28;20034;-74
2022/01/20 05:56:29;;;;;;;43.97;4.75;;;;;;;;;;5034339;28;20029;-77
2022/01/20 05:58:55;;;;;;;51.97;6.25;;;;;;;;;;5033733;28;20120;-76
2022/01/20 06:01:21;;;;;;;38.70;5.78;;;;;;;;;;5034784;28;20021;-77
2022/01/20 06:03:47;;;;;;;39.90;4.82;;;;;;;;;;5033753;28;20029;-74
2022/01/20 06:06:13;;;;;;;42.20;5.10;;;;;;;;;;5034123;28;20571;-75
2022/01/20 06:08:44;;;;;;;46.20;4.47;;;;;;;;;;5032820;28;20097;-76
2022/01/20 06:11:10;;;;;;;50.42;6.47;;;;;;;;;;5036993;28;20088;-76
2022/01/20 06:13:36;;;;;;;37.05;5.88;;;;;;;;;;5039362;28;20029;-74
2022/01/20 06:16:03;;;;;;;42.50;5.75;;;;;;;;;;5037749;28;20056;-75
2022/01/20 06:18:29;;;;;;;59.55;6.03;;;;;;;;;;5036957;28;20048;-76
2022/01/20 06:20:55;;;;;;;52.20;5.22;;;;;;;;;;5033570;28;20479;-75
2022/01/20 06:23:21;;;;;;;48.30;5.32;;;;;;;;;;5032512;28;20021;-75
2022/01/20 06:25:47;;;;;;;43.17;5.75;;;;;;;;;;5032362;28;20025;-76
2022/01/20 06:28:13;;;;;;;55.67;6.25;;;;;;;;;;5034231;28;20033;-75
2022/01/20 06:30:40;;;;;;;48.95;5.75;;;;;;;;;;5033735;28;20025;-76
2022/01/20 06:33:06;;;;;;;48.83;6.53;;;;;;;;;;5032662;28;20128;-76
2022/01/20 06:35:32;;;;;;;45.60;6.32;;;;;;;;;;5033875;28;20029;-75
2022/01/20 06:37:58;;;;;;;54.65;6.20;;;;;;;;;;5035176;28;20072;-75
2022/01/20 06:40:24;;;;;;;45.58;4.80;;;;;;;;;;5035046;28;20056;-75
2022/01/20 06:42:50;;;;;;;28.60;4.68;;;;;;;;;;5035982;28;20028;-76
2022/01/20 06:45:17;;;;;;;51.90;6.30;;;;;;;;;;5041936;28;20005;-75
2022/01/20 06:47:43;;;;;;;54.70;6.85;;;;;;;;;;5046172;28;20020;-75
2022/01/20 06:50:10;;;;;;;37.67;5.05;;;;;;;;;;5055747;28;20502;-76
2022/01/20 06:52:37;;;;;;;39.95;4.75;;;;;;;;;;5035303;28;20057;-74
2022/01/20 06:55:05;;;;;;;55.45;6.32;;;;;;;;;;5033444;28;20455;-75
2022/01/20 06:57:32;;;;;;;51.78;5.63;;;;;;;;;;5033575;28;20108;-74
2022/01/20 06:59:58;;;;;;;55.17;5.72;;;;;;;;;;5032555;28;20386;-74
2022/01/20 07:02:24;;;;;;;38.75;5.43;;;;;;;;;;5033395;28;20040;-76
2022/01/20 07:04:51;;;;;;;53.55;5.40;;;;;;;;;;5032381;28;20025;-73
2022/01/20 07:07:19;;;;;;;38.15;4.70;;;;;;;;;;5033774;28;20025;-75
2022/01/20 07:09:45;;;;;;;48.30;5.65;;;3.30;99.90;;;;;;5034244;28;20026;-76
2022/01/20 07:12:11;;;;;;;50.10;5.80;;;3.20;99.90;;;;;;5034783;28;20064;-76
2022/01/20 07:14:38;;;;;;;53.38;6.07;;;3.30;99.90;;;;;;5035953;28;20026;-75
2022/01/20 07:17:05;;;;;;;57.45;5.93;;;3.20;99.90;;;;;;5034250;28;20025;-77
2022/01/20 07:19:31;;;;;;;34.97;5.47;;;3.20;99.90;;;;;;5033867;28;20080;-76
2022/01/20 07:22:01;;;;;;;49.30;5.28;;;3.10;99.90;;;;;;5034444;28;20029;-75
2022/01/20 07:24:27;;;;;;;39.58;5.32;;;3.10;99.90;;;;;;5034625;28;20021;-76
2022/01/20 07:26:53;;;;;;;49.53;6.38;;;3.20;99.90;;;;;;5033734;28;20017;-76
2022/01/20 07:29:19;;;;;;;50.83;6.55;;;3.20;99.90;;;;;;5033051;28;20505;-77
2022/01/20 07:31:45;;;;;;;37.55;4.95;;;3.10;99.90;;;;;;5033855;28;20451;-80
2022/01/20 07:34:11;;;;;;;38.38;4.75;;;3.10;99.90;;;;;;5031554;28;20048;-75
2022/01/20 07:36:37;;;;;;;52.70;6.10;;;3.20;99.90;;;;;;5032194;28;20033;-76
2022/01/20 07:39:03;;;;;;;43.25;5.47;;;3.10;99.90;;;;;;5034092;28;20071;-76
2022/01/20 07:41:29;;;;;;;47.20;5.18;;;3.20;99.90;;;;;;5034362;28;20030;-76
2022/01/20 07:43:55;;;;;;;46.83;5.65;;;3.20;99.90;;;;;;5034926;28;20044;-75
2022/01/20 07:46:21;;;;;;;49.47;5.40;;;3.20;99.90;;;;;;5043529;28;20052;-75
2022/01/20 07:48:46;;;;;;;42.15;4.97;;;3.20;99.90;;;;;;5042436;28;20419;-78
2022/01/20 07:51:12;;;;;;;45.70;6.20;;;3.30;99.90;;;;;;5039897;28;20028;-76
2022/01/20 07:53:38;;;;;;;52.35;5.57;;;3.30;99.90;;;;;;5044815;28;20041;-75
2022/01/20 07:56:05;;;;;;;30.73;5.22;;;3.40;99.90;;;;;;5046324;28;20034;-75
2022/01/20 07:58:31;;;;;;;48.90;6.25;;;3.50;99.90;;;;;;5048686;28;20022;-76
2022/01/20 08:00:57;;;;;;;38.17;4.95;;;3.60;99.90;;;;;;5036756;28;20025;-76
2022/01/20 08:03:22;;;;;;;30.15;4.50;;;3.80;99.90;;;;;;5033001;28;20045;-76
2022/01/20 08:05:48;;;;;;;32.17;4.32;;;3.90;99.90;;;;;;5032200;28;20034;-74
2022/01/20 08:08:14;;;;;;;28.02;3.13;;;3.90;99.90;;;;;;5034657;28;20128;-78
2022/01/20 08:10:39;;;;;;;28.88;3.50;;;4.00;99.90;;;;;;5037634;28;20429;-75
2022/01/20 08:13:05;;;;;;;19.85;2.78;;;4.00;99.90;;;;;;5036300;28;20025;-79
2022/01/20 08:15:31;;;;;;;16.55;2.55;;;4.00;99.90;;;;;;5036588;28;20029;-74
2022/01/20 08:17:57;;;;;;;20.55;3.10;;;4.00;99.90;;;;;;5036147;28;20030;-76
2022/01/20 08:20:22;;;;;;;23.67;3.85;;;4.00;99.90;;;;;;5036122;28;20387;-74
2022/01/20 08:22:48;;;;;;;69.88;12.82;;;4.00;99.90;;;;;;5035298;28;20033;-75
2022/01/20 08:25:16;;;;;;;104.35;22.13;;;4.00;99.90;;;;;;5035708;28;20121;-75
2022/01/20 08:27:46;;;;;;;73.13;14.30;;;4.10;99.90;;;;;;5034098;28;20075;-76
2022/01/20 08:30:15;;;;;;;32.25;5.05;;;4.10;99.90;;;;;;5035802;28;20056;-76
2022/01/20 08:32:42;;;;;;;38.58;5.90;;;4.20;99.90;;;;;;5035549;28;20056;-75
2022/01/20 08:35:09;;;;;;;36.30;4.38;;;4.30;99.90;;;;;;5034361;28;20026;-76
2022/01/20 08:37:43;;;;;;;26.33;4.20;;;4.40;99.90;;;;;;5035468;28;20017;-75
2022/01/20 08:40:13;;;;;;;19.90;3.07;;;4.60;99.90;;;;;;5034759;28;20076;-75
2022/01/20 08:42:40;;;;;;;30.25;4.35;;;4.70;99.90;;;;;;5037163;28;20025;-74
2022/01/20 08:45:07;;;;;;;31.75;3.53;;;4.90;99.90;;;;;;5036144;28;20022;-73
2022/01/20 08:47:33;;;;;;;47.30;4.75;;;5.00;99.90;;;;;;5034900;28;20026;-74
2022/01/20 08:49:59;;;;;;;31.95;4.78;;;5.20;99.90;;;;;;5035298;28;20079;-75
2022/01/20 08:52:28;;;;;;;33.63;5.22;;;5.80;99.90;;;;;;5035471;28;20092;-75
2022/01/20 08:54:56;;;;;;;36.63;4.55;;;6.40;99.90;;;;;;5035798;28;20032;-75
2022/01/20 08:57:22;;;;;;;41.17;5.20;;;6.90;99.90;;;;;;5035248;28;20048;-73
2022/01/20 08:59:48;;;;;;;35.08;5.55;;;6.90;99.90;;;;;;5036264;28;20475;-75
2022/01/20 09:02:13;;;;;;;34.00;4.47;;;6.70;99.90;;;;;;5037217;28;20030;-75
2022/01/20 09:04:39;;;;;;;40.83;5.25;;;6.60;99.90;;;;;;5037426;28;20390;-74
2022/01/20 09:07:07;;;;;;;27.88;4.97;;;;;;;;;;5036084;28;20060;-75
2022/01/20 09:09:39;;;;;;;34.20;5.35;;;;;;;;;;5035896;28;20116;-75
2022/01/20 09:17:26;;;;;;;37.70;4.60;;;;;;;;;;5037221;28;20394;-79
2022/01/20 09:19:52;;;;;;;32.30;4.35;;;;;;;;;;5038850;28;20034;-78
2022/01/20 09:22:19;;;;;;;27.30;3.90;;;;;;;;;;5045990;28;20022;-78
2022/01/20 09:24:45;;;;;;;26.10;3.67;;;;;;;;;;5042288;28;20061;-79
2022/01/20 09:27:12;;;;;;;25.48;3.03;;;;;;;;;;5036107;28;20033;-77
2022/01/20 09:29:38;;;;;;;25.02;4.13;;;;;;;;;;5038539;28;20029;-79
2022/01/20 09:32:07;;;;;;;17.00;2.83;;;;;;;;;;5038450;28;20033;-78
2022/01/20 09:34:33;;;;;;;20.48;2.90;;;;;;;;;;5037106;28;20036;-78
2022/01/20 09:36:59;;;;;;;17.63;2.72;;;;;;;;;;5039500;28;20028;-75
2022/01/20 09:39:25;;;;;;;19.85;2.95;;;;;;;;;;5040170;28;20083;-81
2022/01/20 09:41:51;;;;;;;47.22;14.68;;;;;;;;;;5037210;28;20032;-76
2022/01/20 09:44:20;;;;;;;26.58;4.28;;;;;;;;;;5035779;28;20397;-74
2022/01/20 09:46:47;;;;;;;23.60;4.18;;;;;;;;;;5033721;28;20041;-74
2022/01/20 09:49:14;;;;;;;27.83;4.10;;;;;;;;;;5034105;28;20026;-73
2022/01/20 09:51:40;;;;;;;25.13;3.40;;;;;;;;;;5035768;28;20037;-76
2022/01/20 09:54:07;;;;;;;31.40;3.83;;;;;;;;;;5038847;28;20029;-77
2022/01/20 09:56:33;;;;;;;21.95;3.40;;;;;;;;;;5039466;28;20022;-76
2022/01/20 09:58:59;;;;;;;27.80;3.38;;;;;;;;;;5039966;28;20026;-76
2022/01/20 10:01:34;;;;;;;26.80;3.28;;;;;;;;;;5036376;28;20035;-76
2022/01/20 10:04:00;;;;;;;26.45;3.75;;;;;;;;;;5036952;28;20022;-76
2022/01/20 10:06:26;;;;;;;23.25;3.55;;;;;;;;;;5033843;28;20028;-76
2022/01/20 10:09:02;;;;;;;22.27;3.38;;;;;;;;;;5035796;28;20104;-77
2022/01/20 10:11:29;;;;;;;26.13;4.63;;;;;;;;;;5036965;28;20397;-77
2022/01/20 10:14:00;;;;;;;26.67;4.20;;;;;;;;;;5038090;28;20076;-76
2022/01/20 10:16:26;;;;;;;26.00;4.10;;;;;;;;;;5039856;28;20022;-77
2022/01/20 10:18:54;;;;;;;24.40;3.22;;;;;;;;;;5042392;28;20083;-76
2022/01/20 10:21:27;;;;;;;24.55;3.20;;;;;;;;;;5045380;28;20022;-76
2022/01/20 10:23:53;;;;;;;19.08;2.65;;;4.40;99.90;;;;;;5052360;28;20041;-75
2022/01/20 10:26:21;;;;;;;18.80;2.28;;;4.20;99.90;;;;;;5044749;28;20025;-75
2022/01/20 10:29:17;;;;;;;19.52;2.80;;;3.60;99.90;;;;;;5041164;28;20018;-74
2022/01/20 10:31:51;;;;;;;11.40;1.42;;;3.30;99.90;;;;;;5031249;28;20044;-76
2022/01/20 10:34:30;;;;;;;18.17;1.48;;;3.00;99.90;;;;;;5039775;28;20056;-74
2022/01/20 10:37:00;;;;;;;15.43;1.60;;;2.90;99.90;;;;;;5034956;28;20017;-77
2022/01/20 10:39:42;;;;;;;13.48;1.52;;;2.80;99.90;;;;;;5036209;28;20026;-76
2022/01/20 10:42:10;;;;;;;9.82;2.63;;;2.80;99.90;;;;;;5041504;28;20045;-76
2022/01/20 10:44:56;;;;;;;30.75;8.15;;;2.70;99.90;;;;;;5054145;28;20043;-75
2022/01/20 10:47:28;;;;;;;24.00;4.03;;;2.80;99.90;;;;;;5038479;28;20052;-75
2022/01/20 10:49:55;;;;;;;16.58;2.00;;;3.00;99.90;;;;;;5033352;28;20021;-76
2022/01/20 10:52:23;;;;;;;14.43;2.08;;;3.30;99.90;;;;;;5034787;28;20041;-76
2022/01/20 10:54:54;;;;;;;20.70;2.90;;;3.60;99.90;;;;;;5037390;28;20073;-77
2022/01/20 10:57:32;;;;;;;27.48;4.82;;;3.80;99.90;;;;;;5036869;28;20475;-76
2022/01/20 11:00:00;;;;;;;23.77;2.90;;;3.90;99.90;;;;;;5042089;28;20025;-76
2022/01/20 11:02:29;;;;;;;24.02;3.58;;;3.90;99.90;;;;;;5052960;28;20048;-77
2022/01/20 11:04:56;;;;;;;28.08;4.57;;;4.00;99.90;;;;;;5039170;28;20503;-78
2022/01/20 11:07:22;;;;;;;25.95;4.45;;;4.10;99.90;;;;;;5039019;28;20109;-77
2022/01/20 11:09:55;;;;;;;26.23;4.03;;;4.20;99.90;;;;;;5042965;28;20140;-76
2022/01/20 11:12:21;;;;;;;42.25;5.95;;;4.50;99.90;;;;;;5048872;28;20099;-75
2022/01/20 11:14:49;;;;;;;30.10;4.28;;;4.70;99.90;;;;;;5051732;28;20082;-76
2022/01/20 11:17:24;;;;;;;31.95;6.05;;;4.90;99.90;;;;;;5044358;28;20048;-77
2022/01/20 11:19:51;;;;;;;32.95;4.60;;;5.10;99.90;;;;;;5042251;28;20528;-77
2022/01/20 11:22:18;;;;;;;29.77;3.80;;;5.20;99.90;;;;;;5033981;28;20030;-75
2022/01/20 11:24:44;;;;;;;29.98;3.58;;;5.20;99.90;;;;;;5034268;28;20040;-76
2022/01/20 11:27:12;;;;;;;47.30;12.85;;;5.40;99.90;;;;;;5033043;28;20021;-75
2022/01/20 11:29:42;;;;;;;25.33;3.28;;;5.60;99.90;;;;;;5033143;28;20144;-75
2022/01/20 11:32:22;;;;;;;23.27;4.03;;;5.70;99.90;;;;;;5034310;28;20052;-76
2022/01/20 11:35:04;;;;;;;27.42;3.63;;;6.00;99.90;;;;;;5034137;28;20029;-77
2022/01/20 11:37:36;;;;;;;36.38;4.03;;;6.30;99.90;;;;;;5032694;28;20112;-76
2022/01/20 11:40:16;;;;;;;31.05;5.13;;;6.50;99.90;;;;;;5033642;28;20035;-77
2022/01/20 11:42:54;;;;;;;28.70;3.85;;;6.60;99.90;;;;;;5035732;28;20017;-75
2022/01/20 11:45:32;;;;;;;35.50;3.80;;;6.60;99.90;;;;;;5037953;28;20045;-76
2022/01/20 11:48:10;;;;;;;24.05;3.45;;;6.50;99.90;;;;;;5038525;28;20022;-77
2022/01/20 11:50:35;;;;;;;30.58;3.50;;;6.40;99.90;;;;;;5039293;28;20026;-77
2022/01/20 11:53:27;;;;;;;37.58;4.20;;;6.50;99.90;;;;;;5037246;28;20036;-76
2022/01/20 11:55:54;;;;;;;33.00;4.00;;;6.60;99.90;;;;;;5035142;28;20034;-75
2022/01/20 11:58:23;;;;;;;27.33;3.80;;;6.60;99.90;;;;;;5037731;28;20025;-76
2022/01/20 12:01:09;;;;;;;28.67;4.10;;;6.60;99.90;;;;;;5037825;28;20025;-75
2022/01/20 12:03:37;;;;;;;26.40;3.17;;;6.40;99.90;;;;;;5060579;23;20095;-77
2022/01/20 12:06:09;;;;;;;23.65;3.40;;;6.30;99.90;;;;;;5039383;28;20039;-77
2022/01/20 12:08:35;;;;;;;30.98;3.63;;;6.40;99.90;;;;;;5039941;28;20486;-75
2022/01/20 12:11:05;;;;;;;21.95;4.35;;;6.60;99.90;;;;;;5041028;28;20056;-77
2022/01/20 12:13:31;;;;;;;23.95;3.58;;;6.60;99.90;;;;;;5031124;28;20029;-78
2022/01/20 12:16:02;;;;;;;31.10;4.45;;;6.40;99.90;;;;;;5037824;28;20611;-78
2022/01/20 12:18:29;;;;;;;24.83;3.35;;;6.30;99.90;;;;;;5041891;28;20112;-80
2022/01/20 12:20:55;;;;;;;17.98;3.33;;;6.90;99.90;;;;;;5044069;28;20029;-77
2022/01/20 12:23:24;;;;;;;21.33;3.45;;;;;;;;;;5035638;28;20033;-78
2022/01/20 12:25:50;;;;;;;36.30;4.10;;;;;;;;;;5036030;28;20385;-77
2022/01/20 12:28:17;;;;;;;20.48;3.17;;;;;;;;;;5037804;28;20104;-73
2022/01/20 12:30:47;;;;;;;19.15;3.55;;;;;;;;;;5039141;28;20026;-76
2022/01/20 12:33:15;;;;;;;25.85;4.35;;;;;;;;;;5038742;28;20036;-76
2022/01/20 12:35:43;;;;;;;26.35;3.45;;;;;;;;;;5037144;28;20365;-77
2022/01/20 12:38:35;;;;;;;22.02;3.45;;;11.80;98.90;;;;;;5037584;28;20508;-78
2022/01/20 12:41:10;;;;;;;28.30;3.45;;;12.40;96.50;;;;;;5037090;28;20129;-77
2022/01/20 12:43:46;;;;;;;20.38;5.25;;;12.80;92.80;;;;;;5042544;28;20054;-77
2022/01/20 12:46:14;;;;;;;15.70;2.70;;;12.90;92.00;;;;;;5036384;28;20025;-77
2022/01/20 12:49:01;;;;;;;25.25;3.55;;;12.70;90.00;;;;;;5036874;28;20087;-76
2022/01/20 12:51:53;;;;;;;22.60;3.95;;;11.70;90.80;;;;;;5036638;28;20029;-76
2022/01/20 12:54:26;;;;;;;26.83;3.97;;;;;;;;;;5036234;28;20034;-77
2022/01/20 12:56:53;;;;;;;20.25;3.38;;;;;;;;;;5036449;28;20025;-76
2022/01/20 12:59:25;;;;;;;20.95;3.80;;;9.20;96.90;;;;;;5037162;28;20029;-77
2022/01/20 13:01:53;;;;;;;20.45;3.90;;;8.60;99.90;;;;;;5040627;28;20025;-78
2022/01/20 13:04:22;;;;;;;26.83;4.30;;;8.30;99.90;;;;;;5036870;28;20032;-75
2022/01/20 13:06:56;;;;;;;20.13;3.25;;;8.30;99.90;;;;;;5035730;28;20032;-78
2022/01/20 13:09:24;;;;;;;23.03;3.63;;;8.50;99.90;;;;;;5039015;28;20382;-77
2022/01/20 13:11:59;;;;;;;17.80;3.50;;;8.70;98.80;;;;;;5036481;28;20109;-77
2022/01/20 13:14:48;;;;;;;21.30;2.83;;;8.50;98.50;;;;;;5042302;28;20029;-77
2022/01/20 13:17:23;;;;;;;18.50;2.45;;;8.60;98.90;;;;;;5035020;28;20029;-76
2022/01/20 13:19:50;;;;;;;11.07;1.95;;;8.20;99.90;;;;;;5035585;28;20478;-75
2022/01/20 13:22:23;;;;;;;14.98;3.03;;;7.70;99.90;;;;;;5034160;28;20083;-77
2022/01/20 13:24:49;;;;;;;16.33;2.20;;;6.90;99.90;;;;;;5035450;28;20084;-77
2022/01/20 13:27:15;;;;;;;15.07;2.35;;;6.00;99.90;;;;;;5035497;28;20078;-75
2022/01/20 13:29:45;;;;;;;20.63;2.60;;;5.40;99.90;;;;;;5039610;28;20045;-76
2022/01/20 13:32:11;;;;;;;14.68;2.45;;;4.80;99.90;;;;;;5039997;28;20033;-77
2022/01/20 13:34:36;;;;;;;15.63;2.55;;;4.30;99.90;;;;;;5039287;28;20544;-77
2022/01/20 13:37:02;;;;;;;18.48;3.38;;;3.90;99.90;;;;;;5036882;28;20100;-79
2022/01/20 13:39:40;;;;;;;16.67;2.78;;;3.70;99.90;;;;;;5037712;28;20506;-77
2022/01/20 13:42:31;;;;;;;15.57;2.00;;;3.60;99.90;;;;;;5036520;28;20053;-78
2022/01/20 13:45:14;;;;;;;16.33;2.10;;;3.50;99.90;;;;;;5038716;28;20014;-77
2022/01/20 13:47:52;;;;;;;15.48;2.80;;;3.50;99.90;;;;;;5041841;28;20022;-77
2022/01/20 13:50:27;;;;;;;21.77;2.22;;;3.50;99.90;;;;;;5038078;28;20029;-77
2022/01/20 13:52:54;;;;;;;17.67;2.60;;;3.50;99.90;;;;;;5037883;28;20035;-77
2022/01/20 13:55:35;;;;;;;24.58;3.90;;;3.50;99.90;;;;;;5036258;28;20083;-77
2022/01/20 13:58:01;;;;;;;19.08;3.30;;;3.60;99.90;;;;;;5034901;28;20037;-76
2022/01/20 14:00:38;;;;;;;11.80;2.30;;;3.50;99.90;;;;;;5036562;28;20033;-77
2022/01/20 14:03:08;;;;;;;19.70;2.80;;;3.60;99.90;;;;;;5035950;28;20033;-74
2022/01/20 14:05:34;;;;;;;17.17;2.35;;;3.60;99.90;;;;;;5031913;28;20140;-75
2022/01/20 14:08:02;;;;;;;16.80;2.45;;;3.70;99.90;;;;;;5032749;28;20017;-75
2022/01/20 14:10:28;;;;;;;17.90;2.53;;;3.70;99.90;;;;;;5033361;28;20382;-76
2022/01/20 14:12:56;;;;;;;14.52;2.25;;;3.60;99.90;;;;;;5033282;28;20108;-75
2022/01/20 14:15:24;;;;;;;15.50;2.35;;;3.80;99.90;;;;;;5033496;28;20071;-75
2022/01/20 14:17:54;;;;;;;22.40;3.50;;;3.80;99.90;;;;;;5034692;28;20152;-75
2022/01/20 14:20:28;;;;;;;22.27;2.85;;;3.90;99.90;;;;;;5035634;28;20474;-76
2022/01/20 14:22:59;;;;;;;16.65;2.88;;;4.00;99.90;;;;;;5034302;28;20033;-76
2022/01/20 14:25:25;;;;;;;16.33;2.67;;;4.10;99.90;;;;;;5036058;28;20482;-75
2022/01/20 14:27:53;;;;;;;20.80;2.92;;;4.30;99.90;;;;;;5036509;28;20017;-76
2022/01/20 14:30:20;;;;;;;14.73;2.83;;;4.30;99.90;;;;;;5036507;28;20423;-75
2022/01/20 14:32:46;;;;;;;21.63;3.30;;;4.60;99.90;;;;;;5034960;28;20027;-75